sensor_id;sensor_type;location;lat;lon;timestamp;pressure;altitude;pressure_sealevel;temperature;humidity
26112;BME280;13829;48.990;8.346;2022-12-20T00:00:55;101010.91;;;3.41;100.00
26112;BME280;13829;48.990;8.346;2022-12-20T00:03:24;101000.94;;;3.52;100.00
26112;BME280;13829;48.990;8.346;2022-12-20T00:05:50;100996.84;;;3.57;100.00
26112;BME280;13829;48.990;8.346;2022-12-20T00:08:17;100988.53;;;3.45;100.00
26112;BME280;13829;48.990;8.346;2022-12-20T00:10:44;100976.06;;;3.18;100.00
26112;BME280;13829;48.990;8.346;2022-12-20T00:13:12;100988.25;;;3.19;100.00
26112;BME280;13829;48.990;8.346;2022-12-20T00:15:39;100982.22;;;3.39;100.00
26112;BME280;13829;48.990;8.346;2022-12-20T00:18:06;100968.81;;;3.50;100.00
26112;BME280;13829;48.990;8.346;2022-12-20T00:20:35;100977.16;;;3.42;100.00
26112;BME280;13829;48.990;8.346;2022-12-20T00:23:02;100975.38;;;3.41;100.00
26112;BME280;13829;48.990;8.346;2022-12-20T00:25:29;100961.63;;;3.44;100.00
26112;BME280;13829;48.990;8.346;2022-12-20T00:27:56;100970.44;;;3.48;100.00
26112;BME280;13829;48.990;8.346;2022-12-20T00:30:23;100966.31;;;3.53;100.00
26112;BME280;13829;48.990;8.346;2022-12-20T00:32:50;100964.03;;;3.61;100.00
26112;BME280;13829;48.990;8.346;2022-12-20T00:35:17;100968.16;;;3.55;100.00
26112;BME280;13829;48.990;8.346;2022-12-20T00:37:46;100973.25;;;3.52;100.00
26112;BME280;13829;48.990;8.346;2022-12-20T00:40:13;100967.03;;;3.49;100.00
26112;BME280;13829;48.990;8.346;2022-12-20T00:42:40;100973.31;;;3.54;100.00
26112;BME280;13829;48.990;8.346;2022-12-20T00:45:08;100972.59;;;3.58;100.00
26112;BME280;13829;48.990;8.346;2022-12-20T00:47:35;100977.69;;;3.55;100.00
26112;BME280;13829;48.990;8.346;2022-12-20T00:50:02;100969.31;;;3.62;100.00
26112;BME280;13829;48.990;8.346;2022-12-20T00:52:29;100975.34;;;3.61;100.00
26112;BME280;13829;48.990;8.346;2022-12-20T00:54:57;100961.91;;;3.71;100.00
26112;BME280;13829;48.990;8.346;2022-12-20T00:57:24;100958.03;;;3.83;100.00
26112;BME280;13829;48.990;8.346;2022-12-20T00:59:51;100960.00;;;3.88;100.00
26112;BME280;13829;48.990;8.346;2022-12-20T01:02:18;100957.53;;;3.70;100.00
26112;BME280;13829;48.990;8.346;2022-12-20T01:04:47;100961.09;;;3.72;100.00
26112;BME280;13829;48.990;8.346;2022-12-20T01:07:14;100964.25;;;3.65;100.00
26112;BME280;13829;48.990;8.346;2022-12-20T01:09:41;100958.91;;;3.62;100.00
26112;BME280;13829;48.990;8.346;2022-12-20T01:12:09;100959.03;;;3.65;100.00
26112;BME280;13829;48.990;8.346;2022-12-20T01:14:36;100967.66;;;3.64;100.00
26112;BME280;13829;48.990;8.346;2022-12-20T01:17:03;100958.28;;;3.68;100.00
26112;BME280;13829;48.990;8.346;2022-12-20T01:19:30;100957.53;;;3.70;100.00
26112;BME280;13829;48.990;8.346;2022-12-20T01:21:57;100950.69;;;3.72;100.00
26112;BME280;13829;48.990;8.346;2022-12-20T01:24:24;100947.22;;;3.73;100.00
26112;BME280;13829;48.990;8.346;2022-12-20T01:26:51;100950.59;;;3.71;100.00
26112;BME280;13829;48.990;8.346;2022-12-20T01:29:19;100948.66;;;3.65;100.00
26112;BME280;13829;48.990;8.346;2022-12-20T01:31:46;100950.97;;;3.59;100.00
26112;BME280;13829;48.990;8.346;2022-12-20T01:34:13;100944.97;;;3.60;100.00
26112;BME280;13829;48.990;8.346;2022-12-20T01:36:40;100943.75;;;3.52;100.00
26112;BME280;13829;48.990;8.346;2022-12-20T01:39:10;100939.63;;;3.57;100.00
26112;BME280;13829;48.990;8.346;2022-12-20T01:41:38;100942.59;;;3.45;100.00
26112;BME280;13829;48.990;8.346;2022-12-20T01:47:09;100946.56;;;3.37;100.00
26112;BME280;13829;48.990;8.346;2022-12-20T01:49:41;100949.25;;;3.59;100.00
26112;BME280;13829;48.990;8.346;2022-12-20T01:52:15;100944.44;;;3.48;100.00
26112;BME280;13829;48.990;8.346;2022-12-20T01:54:50;100945.31;;;3.27;100.00
26112;BME280;13829;48.990;8.346;2022-12-20T01:57:24;100943.78;;;3.32;100.00
26112;BME280;13829;48.990;8.346;2022-12-20T01:59:54;100951.91;;;3.20;100.00
26112;BME280;13829;48.990;8.346;2022-12-20T02:02:23;100948.50;;;3.21;100.00
26112;BME280;13829;48.990;8.346;2022-12-20T02:04:50;100935.81;;;3.08;100.00
26112;BME280;13829;48.990;8.346;2022-12-20T02:07:28;100939.94;;;3.24;100.00
26112;BME280;13829;48.990;8.346;2022-12-20T02:09:59;100931.59;;;3.31;100.00
26112;BME280;13829;48.990;8.346;2022-12-20T02:12:33;100938.09;;;3.62;100.00
26112;BME280;13829;48.990;8.346;2022-12-20T02:15:29;100932.13;;;3.43;100.00
26112;BME280;13829;48.990;8.346;2022-12-20T02:18:15;100938.69;;;3.55;100.00
26112;BME280;13829;48.990;8.346;2022-12-20T02:21:13;100909.38;;;3.59;100.00
26112;BME280;13829;48.990;8.346;2022-12-20T02:24:26;100907.84;;;3.64;100.00
26112;BME280;13829;48.990;8.346;2022-12-20T02:30:10;100899.41;;;3.49;100.00
26112;BME280;13829;48.990;8.346;2022-12-20T02:32:45;100897.88;;;3.54;100.00
26112;BME280;13829;48.990;8.346;2022-12-20T02:35:21;100879.13;;;3.61;100.00
26112;BME280;13829;48.990;8.346;2022-12-20T02:37:51;100887.34;;;3.51;100.00
26112;BME280;13829;48.990;8.346;2022-12-20T02:40:23;100877.66;;;3.47;100.00
26112;BME280;13829;48.990;8.346;2022-12-20T02:42:56;100872.97;;;3.59;100.00
26112;BME280;13829;48.990;8.346;2022-12-20T02:45:31;100878.00;;;3.56;100.00
26112;BME280;13829;48.990;8.346;2022-12-20T02:48:02;100882.13;;;3.51;100.00
26112;BME280;13829;48.990;8.346;2022-12-20T02:50:35;100892.66;;;3.33;100.00
26112;BME280;13829;48.990;8.346;2022-12-20T02:53:05;100892.16;;;3.41;100.00
26112;BME280;13829;48.990;8.346;2022-12-20T02:55:42;100897.69;;;3.49;100.00
26112;BME280;13829;48.990;8.346;2022-12-20T02:58:18;100889.78;;;3.46;100.00
26112;BME280;13829;48.990;8.346;2022-12-20T03:00:52;100891.78;;;3.53;100.00
26112;BME280;13829;48.990;8.346;2022-12-20T03:03:20;100887.59;;;3.57;100.00
26112;BME280;13829;48.990;8.346;2022-12-20T03:05:50;100893.44;;;3.51;100.00
26112;BME280;13829;48.990;8.346;2022-12-20T03:08:18;100880.09;;;3.65;100.00
26112;BME280;13829;48.990;8.346;2022-12-20T03:10:46;100883.31;;;3.57;100.00
26112;BME280;13829;48.990;8.346;2022-12-20T03:13:13;100884.41;;;3.43;100.00
26112;BME280;13829;48.990;8.346;2022-12-20T03:15:40;100878.09;;;3.36;100.00
26112;BME280;13829;48.990;8.346;2022-12-20T03:18:08;100880.38;;;3.50;100.00
26112;BME280;13829;48.990;8.346;2022-12-20T03:20:35;100896.03;;;3.51;100.00
26112;BME280;13829;48.990;8.346;2022-12-20T03:23:03;100894.50;;;3.35;100.00
26112;BME280;13829;48.990;8.346;2022-12-20T03:25:30;100894.50;;;3.35;100.00
26112;BME280;13829;48.990;8.346;2022-12-20T03:27:57;100886.59;;;3.32;100.00
26112;BME280;13829;48.990;8.346;2022-12-20T03:30:24;100888.09;;;3.48;100.00
26112;BME280;13829;48.990;8.346;2022-12-20T03:32:51;100869.66;;;3.63;100.00
26112;BME280;13829;48.990;8.346;2022-12-20T03:35:19;100874.03;;;3.64;100.00
26112;BME280;13829;48.990;8.346;2022-12-20T03:37:46;100876.25;;;3.55;100.00
26112;BME280;13829;48.990;8.346;2022-12-20T03:40:14;100870.91;;;3.52;100.00
26112;BME280;13829;48.990;8.346;2022-12-20T03:42:41;100856.53;;;3.60;100.00
26112;BME280;13829;48.990;8.346;2022-12-20T03:45:09;100854.75;;;3.59;100.00
26112;BME280;13829;48.990;8.346;2022-12-20T03:47:36;100858.31;;;3.61;100.00
26112;BME280;13829;48.990;8.346;2022-12-20T03:50:04;100873.25;;;3.46;100.00
26112;BME280;13829;48.990;8.346;2022-12-20T03:52:33;100872.06;;;3.37;100.00
26112;BME280;13829;48.990;8.346;2022-12-20T03:55:00;100872.38;;;3.45;100.00
26112;BME280;13829;48.990;8.346;2022-12-20T03:57:28;100863.56;;;3.63;100.00
26112;BME280;13829;48.990;8.346;2022-12-20T03:59:55;100857.34;;;3.59;100.00
26112;BME280;13829;48.990;8.346;2022-12-20T04:02:22;100853.03;;;3.59;100.00
26112;BME280;13829;48.990;8.346;2022-12-20T04:04:49;100852.34;;;3.64;100.00
26112;BME280;13829;48.990;8.346;2022-12-20T04:07:16;100852.97;;;3.58;100.00
26112;BME280;13829;48.990;8.346;2022-12-20T04:09:44;100846.31;;;3.43;100.00
26112;BME280;13829;48.990;8.346;2022-12-20T04:12:11;100855.72;;;3.40;100.00
26112;BME280;13829;48.990;8.346;2022-12-20T04:14:38;100847.75;;;3.37;100.00
26112;BME280;13829;48.990;8.346;2022-12-20T04:17:05;100844.97;;;3.53;100.00
26112;BME280;13829;48.990;8.346;2022-12-20T04:19:32;100837.38;;;3.58;100.00
26112;BME280;13829;48.990;8.346;2022-12-20T04:21:59;100842.56;;;3.58;100.00
26112;BME280;13829;48.990;8.346;2022-12-20T04:24:26;100833.13;;;3.60;100.00
26112;BME280;13829;48.990;8.346;2022-12-20T04:26:54;100829.38;;;3.53;100.00
26112;BME280;13829;48.990;8.346;2022-12-20T04:29:21;100826.19;;;3.61;100.00
26112;BME280;13829;48.990;8.346;2022-12-20T04:31:48;100824.31;;;3.56;100.00
26112;BME280;13829;48.990;8.346;2022-12-20T04:34:15;100828.75;;;3.59;100.00
26112;BME280;13829;48.990;8.346;2022-12-20T04:36:42;100829.00;;;3.65;100.00
26112;BME280;13829;48.990;8.346;2022-12-20T04:39:08;100819.22;;;3.59;100.00
26112;BME280;13829;48.990;8.346;2022-12-20T04:41:35;100827.22;;;3.64;100.00
26112;BME280;13829;48.990;8.346;2022-12-20T04:44:04;100823.66;;;3.62;100.00
26112;BME280;13829;48.990;8.346;2022-12-20T04:46:31;100818.34;;;3.59;100.00
26112;BME280;13829;48.990;8.346;2022-12-20T04:48:58;100811.50;;;3.61;100.00
26112;BME280;13829;48.990;8.346;2022-12-20T04:51:25;100815.72;;;3.59;100.00
26112;BME280;13829;48.990;8.346;2022-12-20T04:53:52;100810.59;;;3.61;100.00
26112;BME280;13829;48.990;8.346;2022-12-20T04:56:20;100804.75;;;3.66;100.00
26112;BME280;13829;48.990;8.346;2022-12-20T04:58:50;100813.13;;;3.59;100.00
26112;BME280;13829;48.990;8.346;2022-12-20T05:01:20;100814.53;;;3.51;100.00
26112;BME280;13829;48.990;8.346;2022-12-20T05:03:48;100813.81;;;3.32;100.00
26112;BME280;13829;48.990;8.346;2022-12-20T05:06:16;100821.13;;;3.21;100.00
26112;BME280;13829;48.990;8.346;2022-12-20T05:08:43;100816.56;;;3.37;100.00
26112;BME280;13829;48.990;8.346;2022-12-20T05:11:11;100823.44;;;3.35;100.00
26112;BME280;13829;48.990;8.346;2022-12-20T05:13:38;100810.13;;;3.27;100.00
26112;BME280;13829;48.990;8.346;2022-12-20T05:16:06;100805.19;;;3.33;100.00
26112;BME280;13829;48.990;8.346;2022-12-20T05:18:34;100795.81;;;3.59;100.00
26112;BME280;13829;48.990;8.346;2022-12-20T05:21:02;100791.16;;;3.73;100.00
26112;BME280;13829;48.990;8.346;2022-12-20T05:23:47;100791.22;;;3.75;100.00
26112;BME280;13829;48.990;8.346;2022-12-20T05:26:36;100799.81;;;3.72;100.00
26112;BME280;13829;48.990;8.346;2022-12-20T05:29:04;100816.13;;;3.70;100.00
26112;BME280;13829;48.990;8.346;2022-12-20T05:31:31;100809.06;;;3.66;100.00
26112;BME280;13829;48.990;8.346;2022-12-20T05:34:00;100813.38;;;3.65;100.00
26112;BME280;13829;48.990;8.346;2022-12-20T05:36:28;100812.63;;;3.68;100.00
26112;BME280;13829;48.990;8.346;2022-12-20T05:38:55;100817.16;;;3.73;100.00
26112;BME280;13829;48.990;8.346;2022-12-20T05:41:21;100820.81;;;3.79;100.00
26112;BME280;13829;48.990;8.346;2022-12-20T05:43:48;100810.41;;;3.79;100.00
26112;BME280;13829;48.990;8.346;2022-12-20T05:46:15;100818.22;;;3.79;100.00
26112;BME280;13829;48.990;8.346;2022-12-20T05:48:42;100810.56;;;3.82;100.00
26112;BME280;13829;48.990;8.346;2022-12-20T05:51:11;100813.03;;;3.79;100.00
26112;BME280;13829;48.990;8.346;2022-12-20T05:53:37;100811.94;;;3.73;100.00
26112;BME280;13829;48.990;8.346;2022-12-20T05:56:05;100806.75;;;3.73;100.00
26112;BME280;13829;48.990;8.346;2022-12-20T05:58:32;100809.25;;;3.93;100.00
26112;BME280;13829;48.990;8.346;2022-12-20T06:01:00;100811.28;;;4.00;100.00
26112;BME280;13829;48.990;8.346;2022-12-20T06:03:27;100802.06;;;4.10;100.00
26112;BME280;13829;48.990;8.346;2022-12-20T06:05:55;100813.22;;;4.06;100.00
26112;BME280;13829;48.990;8.346;2022-12-20T06:08:24;100817.00;;;3.91;100.00
26112;BME280;13829;48.990;8.346;2022-12-20T06:10:52;100815.22;;;3.90;100.00
26112;BME280;13829;48.990;8.346;2022-12-20T06:13:19;100816.78;;;3.85;100.00
26112;BME280;13829;48.990;8.346;2022-12-20T06:15:46;100808.25;;;3.89;100.00
26112;BME280;13829;48.990;8.346;2022-12-20T06:18:13;100804.88;;;3.92;100.00
26112;BME280;13829;48.990;8.346;2022-12-20T06:20:40;100793.88;;;3.99;100.00
26112;BME280;13829;48.990;8.346;2022-12-20T06:23:07;100792.94;;;3.97;100.00
26112;BME280;13829;48.990;8.346;2022-12-20T06:25:36;100790.28;;;3.96;100.00
26112;BME280;13829;48.990;8.346;2022-12-20T06:28:04;100786.22;;;4.04;100.00
26112;BME280;13829;48.990;8.346;2022-12-20T06:30:32;100785.44;;;4.06;100.00
26112;BME280;13829;48.990;8.346;2022-12-20T06:33:00;100791.03;;;4.16;100.00
26112;BME280;13829;48.990;8.346;2022-12-20T06:35:27;100791.28;;;3.99;100.00
26112;BME280;13829;48.990;8.346;2022-12-20T06:37:54;100788.53;;;3.96;100.00
26112;BME280;13829;48.990;8.346;2022-12-20T06:40:21;100776.53;;;4.00;100.00
26112;BME280;13829;48.990;8.346;2022-12-20T06:42:49;100783.38;;;3.98;100.00
26112;BME280;13829;48.990;8.346;2022-12-20T06:45:17;100772.28;;;4.02;100.00
26112;BME280;13829;48.990;8.346;2022-12-20T06:47:43;100774.84;;;4.00;100.00
26112;BME280;13829;48.990;8.346;2022-12-20T06:50:10;100771.50;;;4.04;100.00
26112;BME280;13829;48.990;8.346;2022-12-20T06:52:37;100765.63;;;4.10;100.00
26112;BME280;13829;48.990;8.346;2022-12-20T06:55:05;100768.97;;;4.06;100.00
26112;BME280;13829;48.990;8.346;2022-12-20T06:57:32;100771.34;;;4.00;100.00
26112;BME280;13829;48.990;8.346;2022-12-20T07:00:00;100767.63;;;3.93;100.00
26112;BME280;13829;48.990;8.346;2022-12-20T07:02:27;100769.25;;;3.91;100.00
26112;BME280;13829;48.990;8.346;2022-12-20T07:04:54;100770.22;;;3.93;100.00
26112;BME280;13829;48.990;8.346;2022-12-20T07:07:21;100764.88;;;4.13;100.00
26112;BME280;13829;48.990;8.346;2022-12-20T07:09:48;100764.53;;;4.28;100.00
26112;BME280;13829;48.990;8.346;2022-12-20T07:12:15;100760.44;;;4.10;100.00
26112;BME280;13829;48.990;8.346;2022-12-20T07:14:42;100765.78;;;4.13;100.00
26112;BME280;13829;48.990;8.346;2022-12-20T07:17:11;100752.66;;;4.12;100.00
26112;BME280;13829;48.990;8.346;2022-12-20T07:19:38;100753.56;;;4.12;100.00
26112;BME280;13829;48.990;8.346;2022-12-20T07:22:05;100765.41;;;4.28;100.00
26112;BME280;13829;48.990;8.346;2022-12-20T07:24:32;100756.22;;;4.14;100.00
26112;BME280;13829;48.990;8.346;2022-12-20T07:26:59;100764.22;;;4.18;100.00
26112;BME280;13829;48.990;8.346;2022-12-20T07:29:26;100769.25;;;4.14;100.00
26112;BME280;13829;48.990;8.346;2022-12-20T07:31:53;100762.44;;;4.17;100.00
26112;BME280;13829;48.990;8.346;2022-12-20T07:34:22;100765.50;;;4.30;100.00
26112;BME280;13829;48.990;8.346;2022-12-20T07:36:49;100770.81;;;4.33;100.00
26112;BME280;13829;48.990;8.346;2022-12-20T07:39:16;100768.19;;;4.33;100.00
26112;BME280;13829;48.990;8.346;2022-12-20T07:41:43;100775.00;;;4.29;100.00
26112;BME280;13829;48.990;8.346;2022-12-20T07:44:11;100767.75;;;4.20;100.00
26112;BME280;13829;48.990;8.346;2022-12-20T07:46:38;100758.09;;;4.18;100.00
26112;BME280;13829;48.990;8.346;2022-12-20T07:49:05;100752.63;;;4.34;100.00
26112;BME280;13829;48.990;8.346;2022-12-20T07:51:37;100753.56;;;4.36;100.00
26112;BME280;13829;48.990;8.346;2022-12-20T07:54:11;100746.94;;;4.45;100.00
26112;BME280;13829;48.990;8.346;2022-12-20T07:56:43;100739.59;;;4.59;100.00
26112;BME280;13829;48.990;8.346;2022-12-20T07:59:14;100729.84;;;4.79;100.00
26112;BME280;13829;48.990;8.346;2022-12-20T08:01:44;100735.97;;;4.79;100.00
26112;BME280;13829;48.990;8.346;2022-12-20T08:04:16;100735.28;;;4.59;100.00
26112;BME280;13829;48.990;8.346;2022-12-20T08:06:45;100732.97;;;4.68;100.00
26112;BME280;13829;48.990;8.346;2022-12-20T08:09:14;100745.09;;;4.66;100.00
26112;BME280;13829;48.990;8.346;2022-12-20T08:11:45;100742.69;;;4.72;100.00
26112;BME280;13829;48.990;8.346;2022-12-20T08:14:14;100742.09;;;4.81;100.00
26112;BME280;13829;48.990;8.346;2022-12-20T08:16:42;100741.22;;;4.81;100.00
26112;BME280;13829;48.990;8.346;2022-12-20T08:19:09;100737.19;;;4.90;100.00
26112;BME280;13829;48.990;8.346;2022-12-20T08:21:36;100727.91;;;4.99;100.00
26112;BME280;13829;48.990;8.346;2022-12-20T08:24:05;100725.88;;;4.90;100.00
26112;BME280;13829;48.990;8.346;2022-12-20T08:26:37;100725.22;;;4.96;100.00
26112;BME280;13829;48.990;8.346;2022-12-20T08:29:04;100716.75;;;5.03;100.00
26112;BME280;13829;48.990;8.346;2022-12-20T08:31:31;100712.19;;;4.96;100.00
26112;BME280;13829;48.990;8.346;2022-12-20T08:33:58;100717.56;;;5.00;100.00
26112;BME280;13829;48.990;8.346;2022-12-20T08:36:25;100706.47;;;5.07;100.00
26112;BME280;13829;48.990;8.346;2022-12-20T08:38:52;100707.28;;;5.06;100.00
26112;BME280;13829;48.990;8.346;2022-12-20T08:41:20;100695.41;;;5.15;100.00
26112;BME280;13829;48.990;8.346;2022-12-20T08:43:47;100700.81;;;5.21;100.00
26112;BME280;13829;48.990;8.346;2022-12-20T08:46:14;100692.34;;;5.28;100.00
26112;BME280;13829;48.990;8.346;2022-12-20T08:48:41;100692.16;;;5.22;100.00
26112;BME280;13829;48.990;8.346;2022-12-20T08:51:10;100704.66;;;5.05;100.00
26112;BME280;13829;48.990;8.346;2022-12-20T08:53:38;100698.06;;;4.89;100.00
26112;BME280;13829;48.990;8.346;2022-12-20T08:56:08;100708.78;;;4.98;100.00
26112;BME280;13829;48.990;8.346;2022-12-20T08:58:37;100701.38;;;5.11;100.00
26112;BME280;13829;48.990;8.346;2022-12-20T09:01:08;100698.97;;;5.17;100.00
26112;BME280;13829;48.990;8.346;2022-12-20T09:03:37;100703.69;;;5.30;100.00
26112;BME280;13829;48.990;8.346;2022-12-20T09:06:07;100687.03;;;5.25;100.00
26112;BME280;13829;48.990;8.346;2022-12-20T09:08:36;100687.22;;;5.31;100.00
26112;BME280;13829;48.990;8.346;2022-12-20T09:11:05;100692.59;;;5.36;100.00
26112;BME280;13829;48.990;8.346;2022-12-20T09:13:33;100685.00;;;5.44;100.00
26112;BME280;13829;48.990;8.346;2022-12-20T09:16:04;100691.69;;;5.64;100.00
26112;BME280;13829;48.990;8.346;2022-12-20T09:18:32;100707.28;;;5.61;100.00
26112;BME280;13829;48.990;8.346;2022-12-20T09:20:59;100711.63;;;5.62;100.00
26112;BME280;13829;48.990;8.346;2022-12-20T09:23:27;100708.41;;;5.71;100.00
26112;BME280;13829;48.990;8.346;2022-12-20T09:26:00;100702.88;;;5.89;100.00
26112;BME280;13829;48.990;8.346;2022-12-20T09:28:27;100702.53;;;6.07;100.00
26112;BME280;13829;48.990;8.346;2022-12-20T09:30:57;100699.59;;;5.98;100.00
26112;BME280;13829;48.990;8.346;2022-12-20T09:33:26;100708.22;;;5.95;100.00
26112;BME280;13829;48.990;8.346;2022-12-20T09:35:54;100706.00;;;6.08;100.00
26112;BME280;13829;48.990;8.346;2022-12-20T09:38:21;100704.69;;;6.22;100.00
26112;BME280;13829;48.990;8.346;2022-12-20T09:40:51;100699.63;;;6.28;100.00
26112;BME280;13829;48.990;8.346;2022-12-20T09:43:21;100708.91;;;6.17;100.00
26112;BME280;13829;48.990;8.346;2022-12-20T09:45:54;100708.00;;;6.16;100.00
26112;BME280;13829;48.990;8.346;2022-12-20T09:48:27;100709.44;;;6.07;100.00
26112;BME280;13829;48.990;8.346;2022-12-20T09:51:09;100703.28;;;6.03;100.00
26112;BME280;13829;48.990;8.346;2022-12-20T09:53:50;100702.53;;;6.07;100.00
26112;BME280;13829;48.990;8.346;2022-12-20T09:56:26;100700.88;;;6.11;100.00
26112;BME280;13829;48.990;8.346;2022-12-20T09:59:01;100705.25;;;6.12;100.00
26112;BME280;13829;48.990;8.346;2022-12-20T10:01:31;100698.38;;;6.15;100.00
26112;BME280;13829;48.990;8.346;2022-12-20T10:04:03;100689.06;;;6.24;100.00
26112;BME280;13829;48.990;8.346;2022-12-20T10:06:47;100689.69;;;6.48;100.00
26112;BME280;13829;48.990;8.346;2022-12-20T10:09:42;100688.41;;;6.66;100.00
26112;BME280;13829;48.990;8.346;2022-12-20T10:12:27;100678.88;;;6.68;100.00
26112;BME280;13829;48.990;8.346;2022-12-20T10:15:18;100665.22;;;6.80;100.00
26112;BME280;13829;48.990;8.346;2022-12-20T10:18:01;100675.53;;;6.74;100.00
26112;BME280;13829;48.990;8.346;2022-12-20T10:20:48;100677.88;;;6.63;100.00
26112;BME280;13829;48.990;8.346;2022-12-20T10:23:27;100681.31;;;6.60;100.00
26112;BME280;13829;48.990;8.346;2022-12-20T10:25:57;100676.16;;;6.65;100.00
26112;BME280;13829;48.990;8.346;2022-12-20T10:28:29;100672.06;;;6.75;100.00
26112;BME280;13829;48.990;8.346;2022-12-20T10:31:00;100669.06;;;6.94;100.00
26112;BME280;13829;48.990;8.346;2022-12-20T10:33:30;100671.22;;;7.12;100.00
26112;BME280;13829;48.990;8.346;2022-12-20T10:36:24;100655.88;;;7.28;100.00
26112;BME280;13829;48.990;8.346;2022-12-20T10:38:54;100650.94;;;7.42;100.00
26112;BME280;13829;48.990;8.346;2022-12-20T10:41:24;100658.22;;;7.55;100.00
26112;BME280;13829;48.990;8.346;2022-12-20T10:44:00;100650.19;;;7.90;100.00
26112;BME280;13829;48.990;8.346;2022-12-20T10:46:37;100635.44;;;7.94;99.97
26112;BME280;13829;48.990;8.346;2022-12-20T10:49:32;100632.63;;;7.83;100.00
26112;BME280;13829;48.990;8.346;2022-12-20T10:52:07;100626.44;;;7.79;100.00
26112;BME280;13829;48.990;8.346;2022-12-20T10:54:40;100625.19;;;7.60;100.00
26112;BME280;13829;48.990;8.346;2022-12-20T10:57:18;100626.81;;;7.55;100.00
26112;BME280;13829;48.990;8.346;2022-12-20T10:59:50;100636.31;;;7.50;100.00
26112;BME280;13829;48.990;8.346;2022-12-20T11:02:27;100633.56;;;7.44;100.00
26112;BME280;13829;48.990;8.346;2022-12-20T11:05:00;100621.25;;;7.40;100.00
26112;BME280;13829;48.990;8.346;2022-12-20T11:07:32;100620.50;;;7.45;100.00
26112;BME280;13829;48.990;8.346;2022-12-20T11:10:16;100612.69;;;7.47;100.00
26112;BME280;13829;48.990;8.346;2022-12-20T11:12:52;100596.25;;;7.53;100.00
26112;BME280;13829;48.990;8.346;2022-12-20T11:15:23;100582.53;;;7.66;100.00
26112;BME280;13829;48.990;8.346;2022-12-20T11:17:55;100576.31;;;7.59;100.00
26112;BME280;13829;48.990;8.346;2022-12-20T11:20:34;100563.47;;;7.72;100.00
26112;BME280;13829;48.990;8.346;2022-12-20T11:23:19;100558.81;;;7.58;100.00
26112;BME280;13829;48.990;8.346;2022-12-20T11:26:10;100578.88;;;7.58;100.00
26112;BME280;13829;48.990;8.346;2022-12-20T11:29:02;100582.47;;;7.61;100.00
26112;BME280;13829;48.990;8.346;2022-12-20T11:31:49;100584.53;;;7.78;100.00
26112;BME280;13829;48.990;8.346;2022-12-20T11:34:33;100587.13;;;7.78;100.00
26112;BME280;13829;48.990;8.346;2022-12-20T11:37:19;100587.22;;;7.84;100.00
26112;BME280;13829;48.990;8.346;2022-12-20T11:40:05;100575.91;;;7.85;100.00
26112;BME280;13829;48.990;8.346;2022-12-20T11:42:59;100574.09;;;7.81;100.00
26112;BME280;13829;48.990;8.346;2022-12-20T11:45:43;100568.16;;;7.90;100.00
26112;BME280;13829;48.990;8.346;2022-12-20T11:48:39;100558.47;;;7.86;100.00
26112;BME280;13829;48.990;8.346;2022-12-20T11:51:20;100563.78;;;7.90;100.00
26112;BME280;13829;48.990;8.346;2022-12-20T11:53:55;100566.34;;;7.86;100.00
26112;BME280;13829;48.990;8.346;2022-12-20T11:56:29;100551.50;;;7.86;100.00
26112;BME280;13829;48.990;8.346;2022-12-20T11:59:04;100552.53;;;7.94;100.00
26112;BME280;13829;48.990;8.346;2022-12-20T12:01:39;100551.56;;;7.89;100.00
26112;BME280;13829;48.990;8.346;2022-12-20T12:04:14;100549.69;;;7.82;100.00
26112;BME280;13829;48.990;8.346;2022-12-20T12:06:48;100552.22;;;7.79;100.00
26112;BME280;13829;48.990;8.346;2022-12-20T12:09:24;100540.88;;;7.78;100.00
26112;BME280;13829;48.990;8.346;2022-12-20T12:12:01;100539.91;;;7.73;100.00
26112;BME280;13829;48.990;8.346;2022-12-20T12:14:43;100553.94;;;7.77;100.00
26112;BME280;13829;48.990;8.346;2022-12-20T12:17:22;100550.44;;;7.76;100.00
26112;BME280;13829;48.990;8.346;2022-12-20T12:19:54;100547.03;;;7.80;100.00
26112;BME280;13829;48.990;8.346;2022-12-20T12:22:31;100540.09;;;7.84;100.00
26112;BME280;13829;48.990;8.346;2022-12-20T12:25:07;100541.94;;;7.88;100.00
26112;BME280;13829;48.990;8.346;2022-12-20T12:27:38;100520.91;;;7.85;100.00
26112;BME280;13829;48.990;8.346;2022-12-20T12:30:11;100507.97;;;7.93;100.00
26112;BME280;13829;48.990;8.346;2022-12-20T12:32:44;100489.50;;;7.85;100.00
26112;BME280;13829;48.990;8.346;2022-12-20T12:35:56;100472.19;;;7.92;100.00
26112;BME280;13829;48.990;8.346;2022-12-20T12:38:59;100472.25;;;7.98;100.00
26112;BME280;13829;48.990;8.346;2022-12-20T12:42:04;100481.84;;;7.97;100.00
26112;BME280;13829;48.990;8.346;2022-12-20T12:44:46;100470.56;;;8.02;100.00
26112;BME280;13829;48.990;8.346;2022-12-20T12:47:24;100475.03;;;8.07;100.00
26112;BME280;13829;48.990;8.346;2022-12-20T12:49:56;100487.41;;;8.14;100.00
26112;BME280;13829;48.990;8.346;2022-12-20T12:52:39;100473.47;;;8.19;100.00
26112;BME280;13829;48.990;8.346;2022-12-20T12:55:35;100462.16;;;8.20;100.00
26112;BME280;13829;48.990;8.346;2022-12-20T12:58:31;100461.22;;;8.18;100.00
26112;BME280;13829;48.990;8.346;2022-12-20T13:01:03;100457.75;;;8.19;100.00
26112;BME280;13829;48.990;8.346;2022-12-20T13:04:20;100457.91;;;8.28;100.00
26112;BME280;13829;48.990;8.346;2022-12-20T13:07:01;100441.44;;;8.37;100.00
26112;BME280;13829;48.990;8.346;2022-12-20T13:09:41;100451.94;;;8.38;100.00
26112;BME280;13829;48.990;8.346;2022-12-20T13:12:55;100453.78;;;8.44;100.00
26112;BME280;13829;48.990;8.346;2022-12-20T13:16:08;100457.41;;;8.52;100.00
26112;BME280;13829;48.990;8.346;2022-12-20T13:18:35;100439.31;;;8.69;99.44
26112;BME280;13829;48.990;8.346;2022-12-20T13:21:31;100436.59;;;8.64;99.48